^^
Station Historical Data
Daily Summary for July 1, 2017 Units:  English    Metric   Both
« Previous Day
Next Day »
Daily Weekly Monthly Yearly Custom
  High: Low: Average:
Temperature: 84.6 °F 69.8 °F 75.9 °F
Dew Point: 76.5 °F 68.0 °F 71.1 °F
Humidity: 96% 70% 85%
Wind Speed: 6.0mph 0.0mph 1.3mph
Wind Gust: 16.0mph - -
Wind- - SSW
Pressure: 29.97 in 29.85 in -
Precipitation: 0.75 in    
Historical Graphs
 
 
Tabular Data for July 1, 2017
Time Temperature Dew Point Pressure Wind Wind Speed Wind Gust Humidity Rainfall Rate (Hourly) Conditions
00:00 77.0 °F 70.4 °F 29.96 in South 1.0 mph 4.0 mph 80% 0.00 in RA
00:15 76.4 °F 70.1 °F 29.96 in Calm   3.0 mph 81% 0.00 in SCT
00:30 75.8 °F 70.3 °F 29.96 in Calm   1.0 mph 83% 0.00 in SCT
00:45 75.1 °F 70.2 °F 29.96 in Calm     85% 0.00 in SCT
01:00 74.2 °F 69.7 °F 29.96 in Calm     86% 0.00 in SCT
01:15 74.6 °F 69.1 °F 29.96 in South 1.0 mph 4.0 mph 83% 0.00 in FEW
01:30 74.6 °F 68.4 °F 29.96 in South 3.0 mph 5.0 mph 81% 0.00 in FEW
01:45 74.8 °F 68.2 °F 29.95 in South 1.0 mph 6.0 mph 80% 0.00 in FEW
02:00 74.6 °F 68.0 °F 29.95 in SSW 1.0 mph 5.0 mph 80% 0.00 in FEW
02:15 74.7 °F 68.5 °F 29.95 in SSW 2.0 mph 4.0 mph 81% 0.00 in CLR
02:30 74.7 °F 68.9 °F 29.94 in SW 3.0 mph 8.0 mph 82% 0.00 in CLR
02:45 75.0 °F 69.1 °F 29.94 in South 2.0 mph 9.0 mph 82% 0.00 in CLR
03:00 75.2 °F 69.7 °F 29.93 in SSW 5.0 mph 14.0 mph 83% 0.00 in CLR
03:15 75.1 °F 69.5 °F 29.93 in SSW 3.0 mph 11.0 mph 83% 0.00 in CLR
03:30 74.7 °F 69.5 °F 29.93 in South 1.0 mph 7.0 mph 84% 0.00 in CLR
03:45 74.6 °F 69.4 °F 29.93 in South 3.0 mph 10.0 mph 84% 0.00 in CLR
04:00 74.4 °F 69.2 °F 29.94 in SSW 2.0 mph 9.0 mph 84% 0.00 in CLR
04:15 74.3 °F 69.1 °F 29.94 in South 2.0 mph 8.0 mph 84% 0.00 in CLR
04:30 74.0 °F 69.2 °F 29.94 in South 1.0 mph 7.0 mph 85% 0.00 in CLR
04:45 73.7 °F 68.9 °F 29.94 in SSW 1.0 mph 3.0 mph 85% 0.00 in CLR
05:00 73.5 °F 69.1 °F 29.94 in SSW 1.0 mph 4.0 mph 86% 0.00 in CLR
05:15 73.3 °F 68.9 °F 29.95 in Calm   5.0 mph 86% 0.00 in CLR
05:30 73.1 °F 68.7 °F 29.95 in South 1.0 mph 4.0 mph 86% 0.00 in CLR
05:45 72.8 °F 68.7 °F 29.95 in Calm   3.0 mph 87% 0.00 in CLR
06:00 72.9 °F 68.8 °F 29.96 in Calm   4.0 mph 87% 0.00 in CLR
06:15 73.1 °F 69.0 °F 29.96 in Calm   4.0 mph 87% 0.00 in CLR
06:30 73.4 °F 69.3 °F 29.97 in Calm   4.0 mph 87% 0.00 in CLR
06:45 73.4 °F 69.3 °F 29.97 in Calm   4.0 mph 87% 0.00 in CLR
07:00 73.5 °F 69.4 °F 29.97 in Calm   3.0 mph 87% 0.00 in CLR
07:15 73.2 °F 68.8 °F 29.97 in Calm   2.0 mph 86% 0.00 in SCT
07:45 74.1 °F 69.6 °F 29.97 in Calm   1.0 mph 86% 0.00 in SCT
08:00 74.4 °F 70.0 °F 29.97 in Calm   2.0 mph 86% 0.00 in SCT
08:15 74.9 °F 70.1 °F 29.97 in Calm   1.0 mph 85% 0.00 in SCT
08:30 74.8 °F 70.0 °F 29.97 in Calm   3.0 mph 85% 0.00 in SCT
08:45 75.8 °F 70.6 °F 29.97 in East 1.0 mph 5.0 mph 84% 0.00 in SCT
09:00 77.5 °F 71.5 °F 29.96 in SSW 2.0 mph 5.0 mph 82% 0.00 in SCT
09:15 79.0 °F 72.3 °F 29.96 in South 1.0 mph 5.0 mph 80% 0.00 in SCT
09:30 78.9 °F 71.8 °F 29.96 in SW 2.0 mph 7.0 mph 79% 0.00 in SCT
09:45 79.0 °F 72.3 °F 29.95 in Calm   6.0 mph 80% 0.00 in SCT
10:00 79.0 °F 72.7 °F 29.95 in Calm   7.0 mph 81% 0.00 in SCT
10:15 79.3 °F 72.6 °F 29.94 in SW 1.0 mph 5.0 mph 80% 0.00 in SCT
10:30 80.3 °F 72.5 °F 29.94 in SSW 2.0 mph 5.0 mph 77% 0.00 in SCT
10:45 79.5 °F 72.4 °F 29.94 in SW 3.0 mph 8.0 mph 79% 0.00 in SCT
11:00 80.6 °F 73.5 °F 29.94 in West 1.0 mph 8.0 mph 79% 0.00 in SCT
11:15 81.8 °F 73.1 °F 29.93 in SW 5.0 mph 8.0 mph 75% 0.00 in BKN
11:45 83.0 °F 73.8 °F 29.92 in SW 2.0 mph 12.0 mph 74% 0.00 in BKN
12:00 82.7 °F 73.6 °F 29.92 in South 2.0 mph 10.0 mph 74% 0.00 in BKN
12:15 82.6 °F 73.9 °F 29.91 in SW 2.0 mph 9.0 mph 75% 0.00 in BKN
12:30 83.4 °F 73.8 °F 29.91 in SSE 1.0 mph 7.0 mph 73% 0.00 in BKN
12:45 82.8 °F 73.7 °F 29.91 in SSW 2.0 mph 7.0 mph 74% 0.00 in BKN
13:00 82.6 °F 73.8 °F 29.90 in SW 3.0 mph 8.0 mph 75% 0.00 in BKN
13:15 83.2 °F 74.0 °F 29.90 in South 2.0 mph 12.0 mph 74% 0.00 in BKN
13:30 84.6 °F 73.8 °F 29.90 in SSW 6.0 mph 12.0 mph 70% 0.00 in BKN
13:45 82.6 °F 72.6 °F 29.89 in SW 6.0 mph 16.0 mph 72% 0.00 in BKN
14:00 82.1 °F 72.9 °F 29.89 in SW 3.0 mph 13.0 mph 74% 0.00 in BKN
14:15 81.0 °F 72.7 °F 29.89 in SSW 1.0 mph 10.0 mph 76% 0.00 in BKN
14:30 79.5 °F 73.2 °F 29.89 in South 1.0 mph 8.0 mph 81% 0.03 in RA
14:45 78.1 °F 73.2 °F 29.88 in WSW 1.0 mph 7.0 mph 85% 0.02 in RA
15:00 76.8 °F 73.6 °F 29.89 in Calm   5.0 mph 90% 0.03 in BKN
15:15 77.4 °F 74.9 °F 29.88 in SW 1.0 mph 8.0 mph 92% 0.00 in -RA
15:30 77.4 °F 73.9 °F 29.88 in SW 2.0 mph 10.0 mph 89% 0.00 in -RA
16:00 75.7 °F 73.5 °F 29.87 in SSW 1.0 mph 8.0 mph 93% 0.10 in -RA
16:15 77.5 °F 75.3 °F 29.87 in SW 3.0 mph 8.0 mph 93% 0.00 in BKN
16:30 78.4 °F 75.9 °F 29.87 in SSW 2.0 mph 10.0 mph 92% 0.00 in BKN
16:45 79.7 °F 76.5 °F 29.86 in WSW 1.0 mph 6.0 mph 90% 0.00 in BKN
17:00 80.5 °F 75.9 °F 29.85 in WSW 2.0 mph 10.0 mph 86% 0.00 in BKN
17:15 81.3 °F 75.6 °F 29.86 in WSW 1.0 mph 7.0 mph 83% 0.00 in FEW
17:30 80.3 °F 75.0 °F 29.86 in Calm   7.0 mph 84% 0.00 in FEW
17:45 79.0 °F 74.5 °F 29.86 in Calm   6.0 mph 86% 0.00 in FEW
18:00 78.6 °F 74.4 °F 29.85 in Calm   5.0 mph 87% 0.00 in FEW
18:15 78.1 °F 73.9 °F 29.85 in SSW 1.0 mph 4.0 mph 87% 0.00 in FEW
18:30 77.0 °F 72.9 °F 29.86 in Calm   2.0 mph 87% 0.00 in FEW
18:45 75.8 °F 72.0 °F 29.86 in Calm   5.0 mph 88% 0.00 in FEW
19:00 75.3 °F 71.8 °F 29.87 in Calm   3.0 mph 89% 0.00 in FEW
19:15 74.9 °F 71.4 °F 29.88 in WSW 1.0 mph 3.0 mph 89% 0.00 in SCT
19:30 74.8 °F 71.4 °F 29.89 in West 2.0 mph 5.0 mph 89% 0.01 in RA
19:45 72.5 °F 69.1 °F 29.88 in Calm   9.0 mph 89% 0.07 in RA
20:00 71.0 °F 68.6 °F 29.90 in Calm   7.0 mph 92% 0.17 in RA
20:15 70.7 °F 68.9 °F 29.88 in Calm   2.0 mph 94% 0.12 in RA
20:30 70.6 °F 68.8 °F 29.88 in Calm   3.0 mph 94% 0.00 in BKN
20:45 70.4 °F 68.9 °F 29.88 in Calm   2.0 mph 95% 0.00 in BKN
21:00 70.5 °F 69.0 °F 29.88 in Calm   2.0 mph 95% 0.00 in BKN
21:15 70.4 °F 68.9 °F 29.88 in Calm   1.0 mph 95% 0.00 in FEW
21:30 70.4 °F 69.2 °F 29.88 in SSW 1.0 mph 3.0 mph 96% 0.00 in FEW
21:45 70.3 °F 69.1 °F 29.88 in SW 1.0 mph 3.0 mph 96% 0.00 in FEW
22:00 70.3 °F 69.1 °F 29.89 in SW 2.0 mph 4.0 mph 96% 0.00 in FEW
22:15 70.3 °F 69.1 °F 29.90 in South 1.0 mph 4.0 mph 96% 0.00 in FEW
22:30 70.2 °F 69.0 °F 29.89 in SSE 2.0 mph 5.0 mph 96% 0.00 in FEW
22:45 70.0 °F 68.8 °F 29.90 in SW 1.0 mph 5.0 mph 96% 0.00 in FEW
23:00 69.8 °F 68.6 °F 29.91 in SSW 3.0 mph 6.0 mph 96% 0.00 in FEW
23:15 69.9 °F 68.7 °F 29.91 in SSW 2.0 mph 8.0 mph 96% 0.00 in SCT
23:30 70.0 °F 68.8 °F 29.91 in SSW 2.0 mph 6.0 mph 96% 0.00 in SCT
23:45 70.0 °F 68.8 °F 29.91 in SSW 1.0 mph 7.0 mph 96% 0.00 in SCT
TarryTown NY Weather
Compliments of Weather Underground - 1.5 mb